Observations for EAST MIDLANDS, United Kingdom (EGNX)

EGNX 230520Z 23004KT CAVOK 09/08 Q1016  
EGNX 230420Z 23005KT 9000 VCFG NSC 09/07 Q1016  
EGNX 230350Z 24003KT 9000 VCFG NSC 09/08 Q1016  
EGNX 230250Z 27004KT CAVOK 09/08 Q1017  
EGNX 230220Z 29003KT CAVOK 09/08 Q1017  
EGNX 230150Z 27005KT CAVOK 10/08 Q1017  
EGNX 230120Z 27005KT CAVOK 12/08 Q1017  
EGNX 230050Z 26006KT CAVOK 10/08 Q1017  
EGNX 230020Z 26006KT CAVOK 10/08 Q1017  
EGNX 222350Z 26007KT CAVOK 11/08 Q1017  
EGNX 222320Z 26006KT CAVOK 12/08 Q1017  
EGNX 222250Z 27004KT CAVOK 12/08 Q1018  
EGNX 222220Z 27004KT CAVOK 13/08 Q1018  
EGNX 222150Z VRB01KT CAVOK 13/08 Q1018  
EGNX 222120Z 30005KT CAVOK 13/08 Q1018  
EGNX 222050Z 30007KT CAVOK 13/09 Q1018  
EGNX 222020Z 32006KT CAVOK 15/09 Q1017  
EGNX 221950Z 27008KT CAVOK 15/06 Q1017  
EGNX 221920Z 27008KT CAVOK 16/06 Q1017  
EGNX 221820Z 27009KT CAVOK 17/06 Q1017  
EGNX 221750Z 27008KT CAVOK 17/05 Q1017  
EGNX 221720Z 25009KT 220V290 CAVOK 19/06 Q1017  
EGNX 221650Z 24011KT CAVOK 18/04 Q1017  
EGNX 221620Z 23011KT CAVOK 19/04 Q1017  
EGNX 221550Z 22010KT 190V260 CAVOK 20/04 Q1017  
EGNX 221520Z 25010KT 9999 FEW040 19/04 Q1018
EGNX 221450Z 24011KT 210V280 9999 FEW030 20/04 Q1018
EGNX 221420Z 25011KT 9999 FEW020 19/02 Q1018
EGNX 221350Z 25009KT 210V280 9999 FEW020 19/04 Q1018
EGNX 221320Z 25013KT CAVOK 18/04 Q1018  
EGNX 221250Z 28010KT CAVOK 18/04 Q1018  
EGNX 221220Z 26012KT CAVOK 17/04 Q1019  
EGNX 221150Z 24012KT 200V270 9999 FEW028 17/05 Q1019
EGNX 221120Z 24013KT 9999 SCT049 17/05 Q1019
EGNX 221020Z 24011KT CAVOK 15/05 Q1019  
EGNX 220950Z 23009KT CAVOK 15/05 Q1019  
EGNX 220920Z 22007KT CAVOK 14/05 Q1019  
EGNX 220820Z 23007KT CAVOK 13/05 Q1020  
EGNX 220750Z 22007KT CAVOK 12/05 Q1020  
EGNX 220720Z 21007KT CAVOK 11/05 Q1020  
EGNX 220650Z 22008KT CAVOK 10/05 Q1020  
EGNX 220620Z 21008KT 9999 SCT048 10/05 Q1020
EGNX 220550Z 20008KT CAVOK 09/05 Q1019  
EGNX 220520Z 21006KT CAVOK 09/06 Q1019  
EGNX 220450Z 26005KT CAVOK 09/05 Q1019